createdAt,value
2018-03-06T00:02:16.436Z,56.87
2018-03-06T00:04:44.363Z,59.80
2018-03-06T00:07:11.890Z,58.43
2018-03-06T00:09:39.451Z,59.10
2018-03-06T00:12:06.990Z,58.17
2018-03-06T00:14:34.540Z,63.57
2018-03-06T00:17:02.463Z,53.10
2018-03-06T00:19:30.020Z,61.63
2018-03-06T00:21:57.563Z,62.83
2018-03-06T00:24:25.131Z,66.70
2018-03-06T00:26:52.651Z,60.63
2018-03-06T00:29:20.208Z,66.40
2018-03-06T00:31:47.744Z,67.43
2018-03-06T00:34:15.698Z,52.33
2018-03-06T00:36:43.224Z,66.13
2018-03-06T00:39:10.785Z,63.60
2018-03-06T00:41:38.323Z,63.27
2018-03-06T00:44:05.879Z,60.77
2018-03-06T00:46:33.417Z,64.87
2018-03-06T00:49:01.354Z,69.57
2018-03-06T00:51:28.903Z,53.47
2018-03-06T00:53:56.423Z,64.77
2018-03-06T00:56:23.982Z,61.30
2018-03-06T00:58:51.520Z,59.83
2018-03-06T01:01:19.471Z,64.50
2018-03-06T01:03:47.408Z,62.20
2018-03-06T01:06:14.965Z,65.83
2018-03-06T01:08:42.495Z,59.57
2018-03-06T01:11:10.047Z,64.03
2018-03-06T01:13:37.587Z,63.60
2018-03-06T01:16:05.139Z,68.17
2018-03-06T01:18:33.069Z,65.13
2018-03-06T01:21:00.608Z,75.10
2018-03-06T01:23:28.144Z,69.37
2018-03-06T01:25:55.669Z,68.07
2018-03-06T01:28:23.219Z,72.60
2018-03-06T01:30:50.740Z,63.90
2018-03-06T01:33:18.296Z,67.37
2018-03-06T01:35:45.848Z,67.83
2018-03-06T01:38:13.393Z,66.43
2018-03-06T01:40:40.914Z,63.90
2018-03-06T01:43:08.849Z,65.40
2018-03-06T01:45:36.391Z,66.73
2018-03-06T01:48:03.960Z,67.17
2018-03-06T01:50:31.505Z,64.20
2018-03-06T01:52:59.151Z,65.50
2018-03-06T01:55:26.686Z,64.83
2018-03-06T01:57:54.655Z,66.67
2018-03-06T02:00:22.591Z,67.47
2018-03-06T02:02:50.118Z,73.10
2018-03-06T02:05:17.677Z,70.27
2018-03-06T02:07:45.211Z,69.33
2018-03-06T02:10:13.158Z,69.37
2018-03-06T02:12:41.084Z,69.13
2018-03-06T02:15:08.636Z,65.20
2018-03-06T02:17:36.163Z,60.40
2018-03-06T02:20:04.119Z,68.40
2018-03-06T02:22:32.058Z,73.13
2018-03-06T02:24:59.619Z,67.50
2018-03-06T02:27:27.140Z,68.37
2018-03-06T02:29:54.698Z,57.73
2018-03-06T02:32:22.231Z,73.57
2018-03-06T02:34:49.781Z,68.90
2018-03-06T02:37:17.727Z,71.00
2018-03-06T02:39:45.280Z,71.90
2018-03-06T02:42:12.812Z,66.47
2018-03-06T02:44:40.389Z,70.90
2018-03-06T02:47:07.934Z,66.67
2018-03-06T02:49:35.466Z,71.67
2018-03-06T02:52:03.039Z,78.13
2018-03-06T02:54:30.567Z,74.50
2018-03-06T02:56:58.507Z,58.83
2018-03-06T02:59:26.030Z,72.63
2018-03-06T03:01:53.563Z,68.23
2018-03-06T03:04:21.099Z,70.43
2018-03-06T03:06:49.067Z,71.37
2018-03-06T03:09:16.995Z,71.30
2018-03-06T03:11:44.554Z,74.07
2018-03-06T03:14:12.082Z,72.30
2018-03-06T03:16:39.644Z,67.03
2018-03-06T03:19:07.187Z,70.97
2018-03-06T03:21:34.747Z,73.47
2018-03-06T03:24:02.287Z,71.17
2018-03-06T03:26:30.227Z,71.20
2018-03-06T03:28:57.763Z,54.73
2018-03-06T03:31:25.313Z,69.13
2018-03-06T03:33:52.839Z,74.93
2018-03-06T03:36:20.387Z,72.70
2018-03-06T03:38:48.311Z,70.20
2018-03-06T03:41:15.931Z,66.23
2018-03-06T03:43:43.471Z,73.23
2018-03-06T03:46:11.040Z,60.47
2018-03-06T03:48:38.570Z,63.43
2018-03-06T03:51:06.132Z,67.77
2018-03-06T03:53:33.664Z,75.00
2018-03-06T03:56:01.207Z,61.13
2018-03-06T03:58:28.735Z,71.87
2018-03-06T04:00:56.295Z,69.77
2018-03-06T04:03:23.827Z,74.67
2018-03-06T04:05:51.783Z,73.57
2018-03-06T04:08:19.319Z,68.23
2018-03-06T04:10:46.871Z,69.47
2018-03-06T04:13:14.404Z,67.33
2018-03-06T04:15:41.931Z,70.27
2018-03-06T04:18:09.899Z,76.97
2018-03-06T04:20:37.828Z,63.20
2018-03-06T04:23:05.360Z,76.30
2018-03-06T04:25:32.887Z,77.30
2018-03-06T04:28:00.818Z,73.70
2018-03-06T04:30:28.357Z,71.10
2018-03-06T04:32:55.904Z,83.67
2018-03-06T04:35:23.837Z,72.27
2018-03-06T04:37:51.783Z,67.47
2018-03-06T04:40:19.338Z,75.73
2018-03-06T04:42:46.888Z,70.73
2018-03-06T04:45:14.426Z,73.43
2018-03-06T04:47:41.984Z,73.33
2018-03-06T04:50:09.510Z,71.67
2018-03-06T04:52:37.454Z,72.93
2018-03-06T04:55:04.993Z,70.97
2018-03-06T04:57:32.530Z,74.57
2018-03-06T05:00:00.057Z,74.13
2018-03-06T05:02:27.616Z,68.37
2018-03-06T05:04:55.148Z,80.23
2018-03-06T05:07:23.098Z,68.13
2018-03-06T05:09:50.631Z,64.90
2018-03-06T05:12:18.208Z,72.57
2018-03-06T05:14:45.729Z,67.97
2018-03-06T05:17:13.281Z,84.17
2018-03-06T05:19:40.809Z,72.50
2018-03-06T05:22:08.761Z,76.00
2018-03-06T05:24:36.303Z,81.27
2018-03-06T05:27:03.858Z,67.50
2018-03-06T05:29:31.388Z,77.67
2018-03-06T05:31:58.948Z,72.00
2018-03-06T05:34:26.474Z,73.43
2018-03-06T05:36:54.430Z,70.37
2018-03-06T05:39:21.960Z,63.10
2018-03-06T05:41:49.526Z,77.47
2018-03-06T05:44:17.494Z,69.73
2018-03-06T05:46:45.050Z,69.00
2018-03-06T05:49:12.589Z,81.67
2018-03-06T05:51:40.527Z,82.70
2018-03-06T05:54:08.070Z,87.10
2018-03-06T05:56:36.006Z,79.97
2018-03-06T05:59:03.548Z,89.63
2018-03-06T06:01:31.099Z,85.83
2018-03-06T06:03:58.635Z,87.53
2018-03-06T06:06:26.184Z,94.17
2018-03-06T06:08:53.719Z,75.33
2018-03-06T06:11:21.651Z,88.47
2018-03-06T06:13:49.212Z,84.87
2018-03-06T06:16:16.722Z,81.93
2018-03-06T06:18:44.655Z,78.93
2018-03-06T06:21:12.191Z,78.83
2018-03-06T06:23:39.751Z,72.10
2018-03-06T06:26:07.281Z,76.20
2018-03-06T06:28:35.208Z,82.07
2018-03-06T06:31:03.119Z,75.73
2018-03-06T06:33:31.043Z,79.40
2018-03-06T06:35:58.542Z,78.30
2018-03-06T06:38:26.092Z,76.13
2018-03-06T06:40:54.007Z,68.57
2018-03-06T06:43:21.542Z,72.77
2018-03-06T06:45:49.196Z,74.67
2018-03-06T06:48:16.719Z,74.43
2018-03-06T06:50:44.247Z,81.03
2018-03-06T06:53:11.780Z,82.07
2018-03-06T06:55:39.299Z,82.90
2018-03-06T06:58:07.198Z,74.53
2018-03-06T07:00:34.728Z,78.93
2018-03-06T07:03:02.628Z,75.97
2018-03-06T07:05:30.169Z,73.80
2018-03-06T07:07:58.084Z,89.10
2018-03-06T07:10:25.624Z,82.87
2018-03-06T07:12:53.143Z,81.87
2018-03-06T07:15:21.077Z,88.07
2018-03-06T07:17:48.603Z,87.53
2018-03-06T07:20:16.144Z,79.90
2018-03-06T07:22:43.655Z,77.30
2018-03-06T07:25:11.203Z,87.57
2018-03-06T07:27:38.706Z,84.40
2018-03-06T07:30:06.634Z,66.63
2018-03-06T07:32:34.539Z,78.93
2018-03-06T07:35:02.476Z,85.90
2018-03-06T07:37:30.004Z,77.87
2018-03-06T07:39:57.545Z,71.33
2018-03-06T07:42:25.072Z,82.50
2018-03-06T07:44:53.040Z,82.80
2018-03-06T07:47:20.963Z,77.67
2018-03-06T07:49:48.483Z,96.93
2018-03-06T07:52:16.006Z,91.00
2018-03-06T07:54:43.516Z,87.13
2018-03-06T07:57:11.061Z,92.70
2018-03-06T07:59:38.580Z,88.83
2018-03-06T08:02:06.112Z,78.30
2018-03-06T08:04:33.624Z,81.60
2018-03-06T08:07:01.155Z,85.93
2018-03-06T08:09:28.670Z,86.23
2018-03-06T08:11:56.207Z,86.53
2018-03-06T08:14:23.727Z,81.70
2018-03-06T08:16:51.271Z,88.50
2018-03-06T08:19:18.777Z,78.87
2018-03-06T08:21:46.329Z,80.47
2018-03-06T08:24:13.841Z,80.17
2018-03-06T08:26:41.380Z,81.53
2018-03-06T08:29:08.894Z,91.47
2018-03-06T08:31:36.454Z,84.97
2018-03-06T08:34:04.368Z,82.87
2018-03-06T08:36:31.904Z,86.97
2018-03-06T08:38:59.411Z,87.30
2018-03-06T08:41:26.950Z,90.53
2018-03-06T08:43:54.458Z,77.87
2018-03-06T08:46:22.387Z,83.47
2018-03-06T08:48:49.909Z,83.67
2018-03-06T08:51:17.439Z,82.13
2018-03-06T08:53:45.357Z,85.73
2018-03-06T08:56:12.866Z,79.90
2018-03-06T08:58:40.403Z,82.43
2018-03-06T09:01:08.323Z,85.93
2018-03-06T09:03:35.858Z,84.47
2018-03-06T09:06:03.366Z,93.50
2018-03-06T09:08:30.906Z,78.30
2018-03-06T09:10:58.439Z,81.17
2018-03-06T09:13:25.985Z,104.13
2018-03-06T09:15:53.502Z,89.03
2018-03-06T09:18:21.041Z,88.70
2018-03-06T09:20:48.570Z,93.20
2018-03-06T09:23:16.098Z,88.67
2018-03-06T09:25:44.022Z,89.50
2018-03-06T09:28:11.556Z,81.07
2018-03-06T09:30:39.120Z,81.90
2018-03-06T09:33:06.649Z,88.37
2018-03-06T09:35:34.563Z,80.67
2018-03-06T09:38:02.076Z,87.27
2018-03-06T09:40:29.613Z,79.83
2018-03-06T09:42:57.168Z,79.60
2018-03-06T09:45:24.700Z,75.63
2018-03-06T09:47:52.216Z,78.53
2018-03-06T09:50:19.761Z,83.17
2018-03-06T09:52:47.674Z,88.73
2018-03-06T09:55:15.204Z,79.23
2018-03-06T09:57:42.732Z,76.67
2018-03-06T10:00:10.667Z,81.10
2018-03-06T10:02:38.193Z,77.90
2018-03-06T10:05:05.739Z,83.10
2018-03-06T10:07:33.256Z,84.80
2018-03-06T10:10:00.788Z,81.03
2018-03-06T10:12:28.311Z,82.97
2018-03-06T10:14:55.834Z,88.60
2018-03-06T10:17:23.360Z,89.40
2018-03-06T10:19:50.893Z,84.10
2018-03-06T10:22:18.406Z,83.70
2018-03-06T10:24:45.949Z,77.97
2018-03-06T10:27:13.897Z,82.60
2018-03-06T10:29:41.835Z,81.73
2018-03-06T10:32:09.343Z,84.83
2018-03-06T10:34:36.854Z,82.20
2018-03-06T10:37:04.389Z,87.13
2018-03-06T10:39:32.313Z,78.03
2018-03-06T10:41:59.839Z,79.97
2018-03-06T10:44:27.355Z,84.97
2018-03-06T10:46:54.890Z,82.43
2018-03-06T10:49:22.401Z,91.10
2018-03-06T10:51:50.331Z,91.17
2018-03-06T10:54:17.848Z,96.47
2018-03-06T10:56:45.383Z,98.27
2018-03-06T10:59:13.287Z,94.40
2018-03-06T11:01:40.832Z,88.20
2018-03-06T11:04:08.371Z,94.40
2018-03-06T11:06:35.906Z,93.77
2018-03-06T11:09:03.817Z,88.83
2018-03-06T11:11:31.343Z,96.07
2018-03-06T11:13:59.623Z,93.73
2018-03-06T11:16:27.559Z,94.77
2018-03-06T11:18:55.080Z,96.07
2018-03-06T11:21:22.607Z,95.37
2018-03-06T11:23:50.507Z,91.63
2018-03-06T11:26:18.040Z,107.13
2018-03-06T11:28:45.571Z,89.33
2018-03-06T11:31:13.528Z,80.67
2018-03-06T11:33:41.466Z,83.90
2018-03-06T11:36:09.018Z,89.40
2018-03-06T11:38:36.527Z,95.63
2018-03-06T11:41:04.087Z,85.13
2018-03-06T11:43:32.009Z,96.10
2018-03-06T11:45:59.515Z,94.43
2018-03-06T11:48:27.438Z,97.97
2018-03-06T11:50:54.964Z,98.77
2018-03-06T11:53:22.503Z,92.87
2018-03-06T11:55:50.424Z,91.43
2018-03-06T11:58:17.960Z,90.13
2018-03-06T12:00:45.489Z,97.97
2018-03-06T12:03:13.410Z,91.17
2018-03-06T12:05:40.951Z,88.63
2018-03-06T12:08:08.490Z,100.73
2018-03-06T12:10:36.135Z,104.33
2018-03-06T12:13:04.072Z,105.90
2018-03-06T12:15:31.586Z,100.87
2018-03-06T12:17:59.126Z,95.87
2018-03-06T12:20:26.635Z,93.77
2018-03-06T12:22:54.164Z,100.07
2018-03-06T12:25:21.694Z,108.40
2018-03-06T12:27:49.622Z,99.03
2018-03-06T12:30:17.149Z,101.47
2018-03-06T12:32:44.688Z,115.07
2018-03-06T12:35:12.201Z,106.20
2018-03-06T12:37:39.741Z,100.37
2018-03-06T12:40:07.270Z,104.33
2018-03-06T12:42:34.809Z,89.67
2018-03-06T12:45:02.720Z,107.27
2018-03-06T12:47:30.263Z,106.57
2018-03-06T12:49:57.776Z,101.73
2018-03-06T12:52:25.705Z,107.03
2018-03-06T12:54:53.253Z,109.93
2018-03-06T12:57:20.784Z,111.23
2018-03-06T12:59:48.312Z,107.33
2018-03-06T13:02:16.243Z,107.93
2018-03-06T13:04:43.754Z,103.63
2018-03-06T13:07:11.699Z,92.03
2018-03-06T13:09:39.211Z,104.47
2018-03-06T13:12:06.747Z,101.57
2018-03-06T13:14:34.253Z,102.10
2018-03-06T13:17:01.836Z,104.37
2018-03-06T13:19:29.447Z,100.97
2018-03-06T13:21:56.980Z,102.97
2018-03-06T13:24:24.499Z,103.93
2018-03-06T13:26:52.039Z,99.20
2018-03-06T13:29:19.550Z,102.50
2018-03-06T13:31:47.479Z,97.20
2018-03-06T13:34:14.988Z,92.77
2018-03-06T13:36:42.499Z,97.03
2018-03-06T13:39:10.039Z,108.27
2018-03-06T13:41:37.550Z,105.13
2018-03-06T13:44:05.488Z,98.00
2018-03-06T13:46:33.003Z,103.30
2018-03-06T13:49:00.540Z,108.33
2018-03-06T13:51:28.083Z,106.47
2018-03-06T13:53:56.493Z,98.10
2018-03-06T13:56:24.028Z,101.17
2018-03-06T13:58:51.970Z,109.77
2018-03-06T14:01:19.503Z,108.43
2018-03-06T14:03:47.059Z,106.30
2018-03-06T14:06:14.755Z,111.77
2018-03-06T14:08:42.697Z,98.70
2018-03-06T14:11:10.223Z,107.03
2018-03-06T14:13:37.767Z,102.07
2018-03-06T14:16:05.297Z,101.77
2018-03-06T14:18:33.241Z,110.60
2018-03-06T14:21:00.779Z,105.87
2018-03-06T14:23:28.312Z,110.17
2018-03-06T14:25:55.819Z,110.67
2018-03-06T14:28:23.375Z,101.67
2018-03-06T14:30:50.907Z,109.20
2018-03-06T14:33:18.462Z,97.50
2018-03-06T14:35:45.979Z,117.57
2018-03-06T14:38:13.918Z,96.97
2018-03-06T14:40:41.447Z,110.37
2018-03-06T14:43:08.971Z,105.27
2018-03-06T14:45:36.914Z,100.30
2018-03-06T14:48:04.830Z,110.90
2018-03-06T14:50:33.215Z,101.03
2018-03-06T14:53:00.738Z,111.33
2018-03-06T14:55:28.680Z,103.90
2018-03-06T14:57:56.200Z,100.03
2018-03-06T15:00:23.731Z,111.73
2018-03-06T15:02:51.252Z,145.93
2018-03-06T15:05:18.947Z,112.20
2018-03-06T15:07:46.859Z,100.63
2018-03-06T15:10:14.503Z,86.30
2018-03-06T15:12:42.009Z,93.57
2018-03-06T15:15:09.539Z,99.13
2018-03-06T15:17:37.068Z,100.57
2018-03-06T15:20:04.596Z,98.07
2018-03-06T15:22:32.113Z,96.03
2018-03-06T15:24:59.965Z,99.60
2018-03-06T15:27:27.475Z,90.63
2018-03-06T15:29:55.423Z,84.57
2018-03-06T15:32:22.937Z,92.33
2018-03-06T15:34:50.451Z,92.03
2018-03-06T15:37:18.384Z,95.07
2018-03-06T15:39:45.906Z,89.43
2018-03-06T15:42:13.443Z,102.37
2018-03-06T15:44:41.351Z,102.33
2018-03-06T15:47:08.887Z,92.47
2018-03-06T15:49:36.408Z,100.27
2018-03-06T15:52:03.949Z,96.57
2018-03-06T15:54:31.464Z,90.27
2018-03-06T15:56:59.011Z,96.00
2018-03-06T15:59:26.524Z,81.80
2018-03-06T16:01:54.056Z,91.37
2018-03-06T16:04:21.563Z,91.50
2018-03-06T16:06:49.483Z,94.97
2018-03-06T16:09:16.995Z,99.60
2018-03-06T16:11:44.922Z,97.57
2018-03-06T16:14:12.459Z,92.50
2018-03-06T16:16:39.991Z,94.20
2018-03-06T16:19:07.924Z,100.33
2018-03-06T16:21:35.440Z,97.37
2018-03-06T16:24:02.976Z,91.00
2018-03-06T16:26:30.477Z,94.37
2018-03-06T16:28:58.007Z,88.83
2018-03-06T16:31:25.520Z,101.33
2018-03-06T16:33:53.049Z,92.97
2018-03-06T16:36:20.551Z,94.97
2018-03-06T16:38:48.473Z,90.47
2018-03-06T16:41:16.031Z,87.63
2018-03-06T16:43:43.802Z,96.07
2018-03-06T16:46:11.303Z,87.87
2018-03-06T16:48:39.232Z,83.87
2018-03-06T16:51:06.731Z,91.13
2018-03-06T16:53:34.659Z,94.77
2018-03-06T16:56:02.155Z,81.63
2018-03-06T16:58:30.092Z,93.93
2018-03-06T17:00:57.645Z,90.10
2018-03-06T17:03:25.177Z,88.47
2018-03-06T17:05:52.688Z,82.00
2018-03-06T17:08:20.639Z,118.37
2018-03-06T17:10:48.162Z,95.43
2018-03-06T17:13:15.676Z,87.40
2018-03-06T17:15:43.591Z,87.13
2018-03-06T17:18:11.104Z,81.50
2018-03-06T17:20:39.032Z,92.30
2018-03-06T17:23:06.550Z,88.73
2018-03-06T17:25:34.089Z,88.90
2018-03-06T17:28:02.004Z,86.83
2018-03-06T17:30:29.531Z,83.57
2018-03-06T17:32:57.059Z,92.90
2018-03-06T17:35:25.016Z,93.40
2018-03-06T17:37:52.522Z,94.93
2018-03-06T17:40:20.084Z,84.20
2018-03-06T17:42:47.621Z,80.87
2018-03-06T17:45:15.198Z,88.87
2018-03-06T17:47:42.711Z,88.07
2018-03-06T17:50:10.647Z,89.30
2018-03-06T17:52:38.175Z,88.20
2018-03-06T17:55:05.703Z,85.00
2018-03-06T17:57:33.641Z,77.87
2018-03-06T18:00:01.173Z,84.53
2018-03-06T18:02:28.691Z,84.43
2018-03-06T18:04:56.602Z,88.83
2018-03-06T18:07:24.164Z,85.03
2018-03-06T18:09:51.675Z,80.13
2018-03-06T18:12:19.621Z,75.50
2018-03-06T18:14:47.555Z,76.00
2018-03-06T18:17:15.105Z,83.57
2018-03-06T18:19:42.623Z,86.40
2018-03-06T18:22:10.544Z,70.87
2018-03-06T18:24:38.060Z,79.67
2018-03-06T18:27:05.611Z,79.40
2018-03-06T18:29:33.152Z,78.37
2018-03-06T18:32:01.095Z,74.80
2018-03-06T18:34:28.603Z,71.70
2018-03-06T18:36:56.139Z,78.37
2018-03-06T18:39:24.099Z,80.07
2018-03-06T18:41:51.836Z,73.13
2018-03-06T18:44:19.356Z,77.37
2018-03-06T18:46:46.891Z,80.47
2018-03-06T18:49:14.497Z,78.33
2018-03-06T18:51:42.028Z,73.77
2018-03-06T18:54:09.587Z,84.17
2018-03-06T18:56:37.131Z,86.70
2018-03-06T18:59:04.688Z,85.73
2018-03-06T19:01:57.775Z,75.90
2018-03-06T19:04:37.118Z,63.93
2018-03-06T19:07:07.488Z,79.30
2018-03-06T19:09:35.447Z,73.77
2018-03-06T19:12:02.983Z,74.23
2018-03-06T19:14:30.531Z,79.57
2018-03-06T19:16:58.051Z,85.87
2018-03-06T19:19:25.988Z,84.53
2018-03-06T19:21:53.567Z,82.87
2018-03-06T19:24:21.511Z,85.40
2018-03-06T19:26:49.031Z,84.43
2018-03-06T19:29:16.695Z,96.63
2018-03-06T19:31:44.235Z,86.50
2018-03-06T19:34:11.829Z,90.43
2018-03-06T19:36:39.347Z,74.70
2018-03-06T19:39:06.949Z,77.23
2018-03-06T19:41:34.595Z,68.07
2018-03-06T19:44:02.108Z,59.63
2018-03-06T19:46:30.035Z,63.47
2018-03-06T19:48:57.551Z,57.17
2018-03-06T19:51:25.083Z,55.87
2018-03-06T19:53:52.607Z,56.30
2018-03-06T19:56:20.137Z,51.07
2018-03-06T19:58:47.654Z,57.03
2018-03-06T20:01:15.184Z,52.33
2018-03-06T20:03:42.706Z,48.60
2018-03-06T20:06:10.240Z,56.10
2018-03-06T20:08:38.159Z,54.47
2018-03-06T20:11:05.699Z,56.90
2018-03-06T20:13:33.243Z,50.53
2018-03-06T20:16:00.774Z,52.97
2018-03-06T20:18:28.682Z,52.47
2018-03-06T20:20:56.224Z,57.93
2018-03-06T20:23:23.746Z,56.73
2018-03-06T20:25:56.914Z,49.97
2018-03-06T20:28:24.471Z,59.43
2018-03-06T20:30:57.652Z,63.20
2018-03-06T20:33:25.248Z,55.33
2018-03-06T20:35:52.772Z,58.33
2018-03-06T20:40:59.056Z,56.63
2018-03-06T20:43:26.611Z,51.83
2018-03-06T20:45:59.820Z,53.40
2018-03-06T20:48:27.360Z,50.93
2018-03-06T20:50:54.884Z,50.10
2018-03-06T20:53:28.077Z,52.33
2018-03-06T20:55:55.595Z,45.03
2018-03-06T20:58:23.127Z,47.20
2018-03-06T21:00:50.667Z,47.10
2018-03-06T21:03:18.201Z,48.60
2018-03-06T21:05:46.103Z,51.00
2018-03-06T21:08:13.635Z,48.33
2018-03-06T21:10:41.153Z,45.17
2018-03-06T21:13:08.707Z,49.97
2018-03-06T21:15:36.221Z,46.07
2018-03-06T21:18:03.776Z,43.73
2018-03-06T21:20:31.297Z,43.23
2018-03-06T21:22:59.227Z,41.83
2018-03-06T21:25:26.738Z,34.23
2018-03-06T21:27:54.678Z,35.03
2018-03-06T21:30:22.203Z,33.23
2018-03-06T21:32:49.734Z,37.37
2018-03-06T21:35:17.295Z,37.87
2018-03-06T21:37:44.803Z,34.93
2018-03-06T21:40:12.332Z,28.53
2018-03-06T21:42:39.856Z,34.30
2018-03-06T21:45:07.389Z,26.90
2018-03-06T21:47:34.919Z,27.80
2018-03-06T21:50:02.466Z,27.23
2018-03-06T21:52:29.987Z,29.67
2018-03-06T21:54:57.933Z,25.07
2018-03-06T21:57:25.445Z,23.60
2018-03-06T21:59:52.975Z,22.53
2018-03-06T22:02:20.492Z,24.20
2018-03-06T22:04:48.019Z,23.63
2018-03-06T22:07:15.535Z,20.60
2018-03-06T22:09:43.463Z,20.10
2018-03-06T22:12:10.971Z,20.17
2018-03-06T22:14:38.524Z,20.43
2018-03-06T22:17:06.039Z,17.83
2018-03-06T22:19:33.567Z,17.97
2018-03-06T22:22:01.080Z,18.87
2018-03-06T22:24:28.616Z,18.93
2018-03-06T22:26:56.127Z,17.97
2018-03-06T22:29:23.651Z,19.27
2018-03-06T22:31:51.176Z,17.27
2018-03-06T22:34:18.691Z,15.13
2018-03-06T22:36:46.240Z,15.13
2018-03-06T22:39:14.157Z,17.67
2018-03-06T22:41:41.692Z,15.33
2018-03-06T22:44:09.195Z,14.73
2018-03-06T22:46:36.720Z,13.63
2018-03-06T22:49:04.236Z,16.57
2018-03-06T22:51:32.161Z,17.53
2018-03-06T22:53:59.672Z,15.13
2018-03-06T22:56:27.600Z,14.33
2018-03-06T22:58:55.103Z,16.13
2018-03-06T23:01:22.627Z,16.33
2018-03-06T23:03:50.141Z,17.63
2018-03-06T23:06:17.675Z,16.93
2018-03-06T23:08:45.186Z,19.00
2018-03-06T23:11:12.711Z,19.77
2018-03-06T23:13:40.222Z,18.07
2018-03-06T23:16:07.791Z,15.33
2018-03-06T23:18:35.699Z,16.70
2018-03-06T23:21:03.208Z,16.93
2018-03-06T23:23:31.127Z,18.53
2018-03-06T23:25:58.633Z,18.10
2018-03-06T23:28:26.556Z,16.77
2018-03-06T23:30:54.078Z,15.67
2018-03-06T23:33:21.671Z,19.40
2018-03-06T23:35:49.185Z,18.97
2018-03-06T23:38:17.100Z,16.67
2018-03-06T23:40:44.623Z,17.77
2018-03-06T23:43:12.150Z,20.90
2018-03-06T23:45:39.671Z,17.87
2018-03-06T23:48:07.190Z,18.17
2018-03-06T23:50:35.095Z,20.43
2018-03-06T23:53:02.617Z,17.93
2018-03-06T23:55:30.126Z,16.50
2018-03-06T23:57:57.628Z,16.83
